Southbridge, Massachusetts
Current Conditions -  °F | °C
As of 7:54 AM on Friday 19 Dec 2014 (Local Time) from KORH Reporting Station
Overcast Overcast  
Wind Chill: 19°   Ceiling: 4200
Heat Index: 30°   Visibility: 10mi
Dew Point: 22°   Wind: 16mph
Humidity: 72%   Direction: 290°WNW
Pressure: 29.89"   Gusts: NA
Location:  42.07°N, 72.03°W
Report Text: KORH 191254Z 29014KT 10SM OVC042 M01/M06 A2989 RMK AO2 SLP134 T10111056
Loading
Personal Weather Stations






























Interactive Weather Map New forecast layout! Learn more

10-Day Weather Forecast

Advertisements
Track Severe Weather on mobile